createdAt,value
2018-12-17T00:03:02.778Z,14.33
2018-12-17T00:08:05.680Z,15.47
2018-12-17T00:13:07.670Z,13.43
2018-12-17T00:18:08.512Z,14.40
2018-12-17T00:23:09.284Z,13.77
2018-12-17T00:28:11.828Z,13.20
2018-12-17T00:33:12.598Z,11.83
2018-12-17T00:38:13.543Z,14.43
2018-12-17T00:43:14.404Z,16.00
2018-12-17T00:48:15.213Z,15.27
2018-12-17T00:53:15.939Z,14.03
2018-12-17T00:58:16.813Z,15.57
2018-12-17T01:03:17.601Z,15.73
2018-12-17T01:08:18.350Z,14.97
2018-12-17T01:13:19.066Z,12.50
2018-12-17T01:18:20.009Z,13.17
2018-12-17T01:23:20.728Z,14.00
2018-12-17T01:28:22.330Z,14.03
2018-12-17T01:33:30.331Z,12.57
2018-12-17T01:38:31.050Z,13.90
2018-12-17T01:43:31.957Z,13.27
2018-12-17T01:48:32.813Z,12.37
2018-12-17T01:53:33.611Z,10.50
2018-12-17T01:58:34.457Z,10.63
2018-12-17T02:03:35.304Z,9.50
2018-12-17T02:08:36.677Z,10.53
2018-12-17T02:13:38.576Z,10.17
2018-12-17T02:18:39.426Z,10.67
2018-12-17T02:23:40.523Z,11.87
2018-12-17T02:28:41.408Z,10.60
2018-12-17T02:33:42.104Z,12.20
2018-12-17T02:38:42.919Z,10.93
2018-12-17T02:43:43.766Z,10.57
2018-12-17T02:48:44.622Z,10.57
2018-12-17T02:53:45.379Z,10.60
2018-12-17T02:58:46.323Z,10.27
2018-12-17T03:03:49.716Z,11.33
2018-12-17T03:08:50.635Z,11.40
2018-12-17T03:13:51.565Z,10.33
2018-12-17T03:30:03.067Z,10.63
2018-12-17T03:35:05.283Z,10.67
2018-12-17T03:40:06.813Z,9.93
2018-12-17T04:07:31.477Z,9.73
2018-12-17T04:12:32.286Z,10.60
2018-12-17T04:17:33.275Z,11.70
2018-12-17T04:22:46.700Z,10.47
2018-12-17T04:33:24.578Z,9.53
2018-12-17T04:38:31.255Z,9.73
2018-12-17T04:43:32.372Z,15.80
2018-12-17T04:48:33.219Z,15.90
2018-12-17T04:53:34.069Z,12.83
2018-12-17T04:58:34.999Z,13.03
2018-12-17T05:03:36.140Z,11.80
2018-12-17T05:08:37.089Z,12.60
2018-12-17T05:13:37.825Z,10.73
2018-12-17T05:18:38.995Z,10.73
2018-12-17T05:23:39.692Z,10.77
2018-12-17T05:28:40.556Z,19.77
2018-12-17T05:33:41.373Z,14.73
2018-12-17T05:38:42.130Z,15.70
2018-12-17T05:43:42.943Z,12.33
2018-12-17T05:48:43.742Z,12.43
2018-12-17T05:53:44.517Z,12.27
2018-12-17T05:58:45.351Z,9.63
2018-12-17T06:03:46.239Z,10.17
2018-12-17T06:08:47.096Z,11.27
2018-12-17T06:13:48.359Z,11.43
2018-12-17T06:18:49.166Z,10.97
2018-12-17T06:23:49.992Z,13.83
2018-12-17T06:29:01.241Z,13.03
2018-12-17T06:34:02.030Z,11.87
2018-12-17T06:39:02.909Z,12.97
2018-12-17T06:44:05.507Z,11.67
2018-12-17T06:49:06.337Z,10.83
2018-12-17T06:54:07.128Z,9.80
2018-12-17T06:59:07.981Z,10.37
2018-12-17T07:04:08.648Z,10.17
2018-12-17T07:09:09.507Z,10.83
2018-12-17T07:14:10.182Z,11.60
2018-12-17T07:19:10.827Z,11.43
2018-12-17T07:24:11.670Z,11.73
2018-12-17T07:29:12.508Z,10.63
2018-12-17T07:34:13.218Z,12.87
2018-12-17T07:39:13.992Z,12.30
2018-12-17T07:44:14.818Z,13.07
2018-12-17T07:49:15.564Z,11.57
2018-12-17T07:54:16.472Z,14.70
2018-12-17T07:59:17.573Z,13.33
2018-12-17T08:04:19.385Z,10.63
2018-12-17T08:09:20.348Z,10.00
2018-12-17T08:14:21.287Z,8.57
2018-12-17T08:19:22.076Z,9.97
2018-12-17T08:24:23.097Z,9.57
2018-12-17T08:29:23.961Z,10.00
2018-12-17T08:34:24.726Z,10.03
2018-12-17T08:39:25.657Z,11.13
2018-12-17T08:44:26.459Z,10.37
2018-12-17T08:49:27.414Z,12.77
2018-12-17T08:54:28.172Z,11.87
2018-12-17T08:59:28.876Z,10.40
2018-12-17T09:04:29.707Z,11.17
2018-12-17T09:09:30.556Z,11.07
2018-12-17T09:14:31.399Z,15.80
2018-12-17T09:19:32.251Z,11.43
2018-12-17T09:24:33.069Z,11.80
2018-12-17T09:29:33.898Z,10.57
2018-12-17T09:34:35.082Z,11.03
2018-12-17T09:39:36.164Z,11.17
2018-12-17T09:44:37.377Z,9.73
2018-12-17T09:49:38.214Z,11.80
2018-12-17T09:54:39.093Z,10.67
2018-12-17T09:59:40.077Z,11.40
2018-12-17T10:04:40.886Z,12.37
2018-12-17T10:09:41.715Z,10.73
2018-12-17T10:14:42.862Z,10.97
2018-12-17T10:19:43.737Z,10.13
2018-12-17T10:24:44.572Z,11.57
2018-12-17T10:29:45.329Z,10.60
2018-12-17T10:34:46.888Z,12.93
2018-12-17T10:39:47.739Z,12.10
2018-12-17T10:44:48.602Z,11.00
2018-12-17T10:49:49.688Z,9.53
2018-12-17T10:54:50.360Z,11.50
2018-12-17T10:59:51.110Z,10.77
2018-12-17T11:04:57.393Z,10.00
2018-12-17T11:09:58.228Z,11.07
2018-12-17T11:14:59.034Z,10.27
2018-12-17T11:19:59.696Z,10.83
2018-12-17T11:25:00.539Z,11.13
2018-12-17T11:30:01.464Z,10.23
2018-12-17T11:35:04.353Z,10.03
2018-12-17T11:40:07.033Z,9.27
2018-12-17T11:45:09.297Z,11.67
2018-12-17T11:50:10.733Z,8.67
2018-12-17T11:55:11.837Z,11.10
2018-12-17T12:00:13.487Z,10.53
2018-12-17T12:05:14.345Z,10.07
2018-12-17T12:10:15.164Z,8.77
2018-12-17T12:15:16.068Z,10.53
2018-12-17T12:20:17.093Z,11.23
2018-12-17T12:25:17.874Z,9.47
2018-12-17T12:30:18.740Z,9.13
2018-12-17T12:35:20.071Z,9.43
2018-12-17T12:40:20.961Z,8.63
2018-12-17T12:45:22.310Z,7.87
2018-12-17T12:50:23.205Z,8.70
2018-12-17T12:55:24.184Z,8.80
2018-12-17T13:00:25.254Z,7.97
2018-12-17T13:05:26.199Z,10.10
2018-12-17T13:10:27.033Z,9.10
2018-12-17T13:15:27.710Z,8.80
2018-12-17T13:20:28.596Z,7.53
2018-12-17T13:25:36.043Z,8.67
2018-12-17T13:30:37.400Z,8.27
2018-12-17T13:35:38.155Z,8.13
2018-12-17T13:40:38.910Z,9.13
2018-12-17T13:45:39.646Z,8.77
2018-12-17T13:50:41.067Z,8.17
2018-12-17T13:55:41.887Z,8.27
2018-12-17T14:00:42.630Z,8.70
2018-12-17T14:05:43.466Z,9.90
2018-12-17T14:10:51.190Z,10.40
2018-12-17T14:15:55.023Z,8.07
2018-12-17T14:21:01.135Z,8.60
2018-12-17T14:26:02.307Z,6.03
2018-12-17T14:31:03.196Z,6.37
2018-12-17T14:36:08.920Z,6.10
2018-12-17T14:41:09.883Z,7.17
2018-12-17T14:46:10.953Z,6.47
2018-12-17T14:51:11.911Z,6.27
2018-12-17T14:56:13.114Z,6.23
2018-12-17T15:01:14.627Z,5.50
2018-12-17T15:06:15.295Z,6.10
2018-12-17T15:11:16.107Z,4.97
2018-12-17T15:16:16.958Z,5.07
2018-12-17T15:21:17.780Z,5.53
2018-12-17T15:26:18.753Z,5.27
2018-12-17T15:31:20.291Z,5.63
2018-12-17T15:36:21.217Z,5.43
2018-12-17T15:41:22.020Z,5.90
2018-12-17T15:46:22.900Z,4.50
2018-12-17T15:51:24.133Z,5.40
2018-12-17T15:56:24.932Z,4.27
2018-12-17T16:01:25.726Z,5.17
2018-12-17T16:06:26.445Z,5.57
2018-12-17T16:11:27.208Z,4.73
2018-12-17T16:16:28.131Z,4.90
2018-12-17T16:21:28.904Z,4.97
2018-12-17T16:26:29.587Z,4.90
2018-12-17T16:31:30.416Z,5.93
2018-12-17T16:36:32.049Z,6.33
2018-12-17T16:41:32.777Z,5.80
2018-12-17T16:46:33.679Z,5.83
2018-12-17T16:51:34.539Z,5.40
2018-12-17T16:56:35.667Z,5.10
2018-12-17T17:01:36.342Z,5.80
2018-12-17T17:06:37.455Z,7.37
2018-12-17T17:11:38.282Z,10.70
2018-12-17T17:16:39.512Z,6.40
2018-12-17T17:21:40.327Z,5.67
2018-12-17T17:26:41.651Z,5.33
2018-12-17T17:31:42.453Z,5.57
2018-12-17T17:36:43.757Z,5.63
2018-12-17T17:41:45.224Z,6.50
2018-12-17T17:46:46.076Z,5.57
2018-12-17T17:51:46.805Z,4.90
2018-12-17T17:56:47.633Z,8.10
2018-12-17T18:01:48.383Z,5.97
2018-12-17T18:06:49.939Z,6.10
2018-12-17T18:11:50.697Z,6.60
2018-12-17T18:16:51.585Z,8.57
2018-12-17T18:21:52.687Z,10.00
2018-12-17T18:26:53.411Z,8.37
2018-12-17T18:31:54.212Z,6.93
2018-12-17T18:36:55.000Z,6.10
2018-12-17T18:41:55.913Z,5.33
2018-12-17T18:46:56.780Z,5.90
2018-12-17T18:51:57.582Z,5.10
2018-12-17T19:02:32.857Z,7.37
2018-12-17T19:07:29.707Z,7.40
2018-12-17T19:12:30.890Z,7.23
2018-12-17T19:17:32.277Z,7.17
2018-12-17T19:22:33.583Z,6.60
2018-12-17T19:27:34.510Z,6.87
2018-12-17T19:32:40.253Z,5.97
2018-12-17T19:37:38.664Z,5.40
2018-12-17T19:42:39.624Z,5.37
2018-12-17T19:47:40.479Z,5.33
2018-12-17T19:52:41.508Z,4.60
2018-12-17T19:57:42.548Z,4.07
2018-12-17T20:02:47.057Z,4.53
2018-12-17T20:24:32.784Z,6.00
2018-12-17T20:29:38.512Z,5.67
2018-12-17T20:34:39.774Z,5.10
2018-12-17T20:39:41.034Z,4.93
2018-12-17T20:50:24.588Z,6.73
2018-12-17T20:55:33.809Z,5.87
2018-12-17T21:00:40.713Z,6.07
2018-12-17T21:05:41.973Z,5.97
2018-12-17T21:10:42.716Z,5.90
2018-12-17T21:15:43.597Z,5.77
2018-12-17T21:20:44.577Z,6.33
2018-12-17T21:25:45.547Z,6.73
2018-12-17T21:30:46.660Z,6.70
2018-12-17T21:35:47.573Z,6.13
2018-12-17T21:40:48.326Z,6.70
2018-12-17T21:45:49.690Z,6.10
2018-12-17T21:50:50.695Z,6.77
2018-12-17T21:55:51.695Z,6.30
2018-12-17T22:00:52.665Z,5.10
2018-12-17T22:05:54.534Z,6.23
2018-12-17T22:10:55.545Z,5.93
2018-12-17T22:15:56.446Z,6.10
2018-12-17T22:20:57.554Z,5.47
2018-12-17T22:25:58.348Z,5.43
2018-12-17T22:30:59.267Z,5.90
2018-12-17T22:36:00.054Z,6.37
2018-12-17T22:41:01.032Z,5.23
2018-12-17T22:46:02.781Z,5.10
2018-12-17T22:51:03.830Z,7.03
2018-12-17T22:56:04.656Z,6.30
2018-12-17T23:01:05.929Z,5.83
2018-12-17T23:06:08.458Z,6.37
2018-12-17T23:11:20.611Z,6.83
2018-12-17T23:16:32.532Z,7.00
2018-12-17T23:21:34.010Z,6.47
2018-12-17T23:26:36.759Z,7.07
2018-12-17T23:31:37.621Z,7.70
2018-12-17T23:36:38.367Z,6.73
2018-12-17T23:41:39.263Z,7.73
2018-12-17T23:46:40.029Z,6.80
2018-12-17T23:51:40.869Z,7.07
2018-12-17T23:56:41.723Z,7.70
